Time;durP1;ratioP1;P1;durP2;ratioP2;P2;SDS_P1;SDS_P2;PMS_P1;PMS_P2;Temp;Humidity;BMP_temperature;BMP_pressure;BME280_temperature;BME280_humidity;BME280_pressure;Samples;Min_cycle;Max_cycle;Signal;HPM_P1;HPM_P2
2022/12/06 00:01:28;;;;;;;25.65;15.40;;;3.40;99.90;;;;;;5107727;28;20226;-83
2022/12/06 00:03:57;;;;;;;18.35;13.82;;;3.50;99.90;;;;;;5108170;28;20190;-83
2022/12/06 00:06:27;;;;;;;20.85;14.25;;;3.50;99.90;;;;;;5105003;28;20237;-85
2022/12/06 00:08:54;;;;;;;22.58;13.75;;;3.50;99.90;;;;;;5106092;28;20204;-84
2022/12/06 00:11:23;;;;;;;20.88;13.65;;;3.50;99.90;;;;;;5105470;28;20711;-83
2022/12/06 00:13:53;;;;;;;22.08;13.98;;;3.60;99.90;;;;;;5104603;28;20225;-83
2022/12/06 00:16:20;;;;;;;16.30;12.23;;;3.50;99.90;;;;;;5104731;28;20190;-83
2022/12/06 00:18:49;;;;;;;20.70;13.63;;;3.50;99.90;;;;;;5105609;28;20308;-83
2022/12/06 00:21:19;;;;;;;18.67;12.80;;;3.50;99.90;;;;;;5109177;28;20297;-84
2022/12/06 00:23:48;;;;;;;19.25;12.57;;;3.50;99.90;;;;;;5115831;28;20249;-83
2022/12/06 00:26:16;;;;;;;23.33;13.32;;;3.50;99.90;;;;;;5108068;28;20210;-83
2022/12/06 00:28:43;;;;;;;22.00;14.55;;;3.50;99.90;;;;;;5105879;28;20251;-83
2022/12/06 00:31:13;;;;;;;18.20;13.20;;;3.50;99.90;;;;;;5106004;28;20221;-83
2022/12/06 00:33:40;;;;;;;18.23;12.57;;;3.40;99.90;;;;;;5105835;28;20281;-83
2022/12/06 00:36:11;;;;;;;20.35;12.23;;;3.50;99.90;;;;;;5109615;28;20265;-82
2022/12/06 00:38:38;;;;;;;16.65;12.07;;;3.40;99.90;;;;;;5111416;28;20202;-83
2022/12/06 00:41:07;;;;;;;19.77;12.85;;;3.20;99.90;;;;;;5110019;28;20292;-82
2022/12/06 00:43:34;;;;;;;19.25;12.60;;;3.30;99.90;;;;;;5110869;28;20250;-83
2022/12/06 00:46:02;;;;;;;19.02;14.35;;;3.40;99.90;;;;;;5110626;28;20265;-83
2022/12/06 00:48:30;;;;;;;18.10;11.65;;;3.40;99.90;;;;;;5112100;28;20244;-83
2022/12/06 00:50:56;;;;;;;18.73;12.80;;;3.70;99.90;;;;;;5111827;28;20206;-83
2022/12/06 00:53:26;;;;;;;20.63;13.10;;;3.40;99.90;;;;;;5112905;28;20261;-83
2022/12/06 00:55:53;;;;;;;14.88;11.40;;;3.20;99.90;;;;;;5116089;28;20213;-82
2022/12/06 00:58:21;;;;;;;19.45;12.63;;;2.90;99.90;;;;;;5117101;28;20224;-82
2022/12/06 01:00:48;;;;;;;20.13;12.77;;;3.30;99.90;;;;;;5111773;28;20713;-83
2022/12/06 01:03:15;;;;;;;21.23;12.82;;;3.70;99.90;;;;;;5107475;28;20284;-83
2022/12/06 01:05:44;;;;;;;20.13;13.15;;;3.20;99.90;;;;;;5109291;28;20224;-83
2022/12/06 01:08:11;;;;;;;20.35;11.32;;;3.60;99.90;;;;;;5110253;28;20266;-84
2022/12/06 01:10:40;;;;;;;15.68;11.10;;;3.50;99.90;;;;;;5110633;28;20268;-85
2022/12/06 01:13:08;;;;;;;18.10;11.43;;;3.20;99.90;;;;;;5110258;28;20313;-84
2022/12/06 01:15:36;;;;;;;18.77;11.82;;;3.40;99.90;;;;;;5110306;28;20292;-85
2022/12/06 01:18:03;;;;;;;16.08;11.85;;;3.30;99.90;;;;;;5110430;28;20590;-84
2022/12/06 01:20:30;;;;;;;19.77;11.93;;;3.40;99.90;;;;;;5110046;28;20660;-84
2022/12/06 01:22:57;;;;;;;16.95;10.80;;;3.30;99.90;;;;;;5111640;28;20267;-83
2022/12/06 01:25:24;;;;;;;18.52;13.63;;;3.30;99.90;;;;;;5112474;28;20206;-84
2022/12/06 01:27:53;;;;;;;17.95;12.93;;;3.30;99.90;;;;;;5114428;28;20209;-83
2022/12/06 01:30:21;;;;;;;19.42;13.55;;;3.40;99.90;;;;;;5113746;28;20220;-83
2022/12/06 01:32:47;;;;;;;17.85;11.02;;;2.80;99.90;;;;;;5112115;28;20237;-83
2022/12/06 01:35:17;;;;;;;16.88;11.82;;;3.30;99.90;;;;;;5110444;28;20259;-84
2022/12/06 01:37:44;;;;;;;16.70;12.65;;;3.30;99.90;;;;;;5109585;28;20213;-83
2022/12/06 01:40:13;;;;;;;17.02;11.40;;;3.50;99.90;;;;;;5108768;28;20671;-82
2022/12/06 01:42:39;;;;;;;16.25;12.43;;;3.30;99.90;;;;;;5107935;28;20225;-83
2022/12/06 01:45:10;;;;;;;19.10;13.07;;;3.30;99.90;;;;;;5109085;28;20208;-83
2022/12/06 01:47:41;;;;;;;16.75;11.77;;;3.00;99.90;;;;;;5108169;28;20193;-82
2022/12/06 01:50:13;;;;;;;16.83;12.35;;;3.30;99.90;;;;;;5108551;28;20214;-82
2022/12/06 01:52:47;;;;;;;16.10;12.43;;;3.40;99.90;;;;;;5108642;28;20257;-83
2022/12/06 01:55:15;;;;;;;18.67;12.98;;;3.10;99.90;;;;;;5107957;28;20273;-83
2022/12/06 01:57:42;;;;;;;19.23;11.73;;;2.80;99.90;;;;;;5103461;28;20202;-83
2022/12/06 02:00:11;;;;;;;20.17;13.18;;;3.20;99.90;;;;;;5099632;28;20300;-84
2022/12/06 02:02:38;;;;;;;19.80;12.95;;;3.50;99.90;;;;;;5101387;28;20580;-83
2022/12/06 02:05:06;;;;;;;18.40;11.48;;;3.40;99.90;;;;;;5103988;28;20277;-83
2022/12/06 02:07:34;;;;;;;16.88;11.63;;;3.20;99.90;;;;;;5104857;28;20238;-83
2022/12/06 02:10:02;;;;;;;16.90;10.85;;;3.30;99.90;;;;;;5104921;28;20226;-84
2022/12/06 02:12:29;;;;;;;16.48;10.98;;;3.20;99.90;;;;;;5106744;28;20294;-83
2022/12/06 02:14:56;;;;;;;17.38;11.40;;;3.20;99.90;;;;;;5109845;28;20274;-83
2022/12/06 02:17:36;;;;;;;18.63;12.32;;;3.30;99.90;;;;;;5117547;28;20190;-83
2022/12/06 02:20:16;;;;;;;15.85;10.77;;;3.30;99.90;;;;;;5110637;28;20679;-83
2022/12/06 02:23:34;;;;;;;14.35;10.85;;;3.10;99.90;;;;;;5109996;28;20232;-84
2022/12/06 02:26:22;;;;;;;19.10;11.60;;;3.20;99.90;;;;;;5050027;28;20680;-83
2022/12/06 02:29:21;;;;;;;14.30;11.10;;;3.20;99.90;;;;;;5118403;28;20209;-82
2022/12/06 02:31:56;;;;;;;18.55;11.60;;;3.10;99.90;;;;;;5119421;28;20284;-83
2022/12/06 02:34:31;;;;;;;21.15;13.50;;;3.30;99.90;;;;;;5117807;28;20183;-83
2022/12/06 02:37:03;;;;;;;16.55;11.13;;;3.10;99.90;;;;;;5114845;28;20658;-83
2022/12/06 02:39:36;;;;;;;16.35;12.57;;;3.10;99.90;;;;;;5108869;28;20263;-83
2022/12/06 02:42:08;;;;;;;16.17;10.93;;;3.00;99.90;;;;;;5109924;28;20225;-83
2022/12/06 02:44:40;;;;;;;17.08;11.43;;;3.10;99.90;;;;;;5120897;28;20170;-83
2022/12/06 02:47:11;;;;;;;12.60;10.13;;;2.70;99.90;;;;;;5120907;28;20201;-81
2022/12/06 02:49:45;;;;;;;14.07;10.25;;;3.00;99.90;;;;;;5110129;28;20193;-83
2022/12/06 02:52:13;;;;;;;14.18;10.30;;;3.00;99.90;;;;;;5108209;28;20229;-83
2022/12/06 02:54:41;;;;;;;16.67;11.13;;;3.00;99.90;;;;;;5108248;28;20247;-83
2022/12/06 02:57:08;;;;;;;15.85;12.82;;;3.20;99.90;;;;;;5107578;28;20229;-83
2022/12/06 02:59:35;;;;;;;19.50;13.23;;;3.40;99.90;;;;;;5107238;28;20304;-83
2022/12/06 03:02:04;;;;;;;20.88;13.65;;;3.20;99.90;;;;;;5107213;28;20302;-82
2022/12/06 03:04:56;;;;;;;14.52;11.70;;;3.30;99.90;;;;;;5107633;28;20202;-83
2022/12/06 03:07:37;;;;;;;14.70;11.68;;;3.10;99.90;;;;;;5107298;28;20193;-83
2022/12/06 03:10:19;;;;;;;18.73;12.73;;;3.10;99.90;;;;;;5107452;28;20190;-83
2022/12/06 03:12:55;;;;;;;14.05;9.48;;;3.10;99.90;;;;;;5107237;28;20240;-83
2022/12/06 03:15:33;;;;;;;13.32;9.90;;;3.10;99.90;;;;;;5108406;28;20568;-84
2022/12/06 03:18:06;;;;;;;18.55;11.18;;;3.00;99.90;;;;;;5108374;28;20201;-83
2022/12/06 03:20:42;;;;;;;15.60;10.70;;;3.00;99.90;;;;;;5107650;28;20220;-84
2022/12/06 03:23:13;;;;;;;20.88;10.35;;;2.60;99.90;;;;;;5107154;28;20288;-85
2022/12/06 03:25:42;;;;;;;14.68;10.43;;;2.80;99.90;;;;;;5106207;28;20269;-85
2022/12/06 03:28:13;;;;;;;16.52;10.00;;;2.80;99.90;;;;;;5106753;28;20202;-84
2022/12/06 03:30:42;;;;;;;14.45;9.50;;;3.10;99.90;;;;;;5107188;28;20245;-83
2022/12/06 03:33:12;;;;;;;15.55;11.40;;;3.00;99.90;;;;;;5098852;28;20222;-84
2022/12/06 03:35:42;;;;;;;17.88;11.27;;;2.80;99.90;;;;;;5107417;28;20236;-84
2022/12/06 03:38:12;;;;;;;15.90;9.63;;;3.00;99.90;;;;;;5107931;28;20186;-85
2022/12/06 03:40:42;;;;;;;16.13;10.75;;;2.80;99.90;;;;;;5107457;28;20198;-84
2022/12/06 03:43:09;;;;;;;16.83;10.07;;;2.90;99.90;;;;;;5113822;28;20707;-83
2022/12/06 03:45:41;;;;;;;17.98;10.32;;;3.00;99.90;;;;;;5115030;28;20261;-83
2022/12/06 03:48:12;;;;;;;16.73;12.23;;;3.10;99.90;;;;;;5109642;28;20182;-85
2022/12/06 03:50:45;;;;;;;19.00;11.55;;;2.60;99.90;;;;;;5108526;28;20194;-84
2022/12/06 03:53:13;;;;;;;18.48;12.60;;;2.60;99.90;;;;;;5107600;28;20291;-83
2022/12/06 03:55:41;;;;;;;17.63;11.68;;;2.90;99.90;;;;;;5108083;28;20236;-83
2022/12/06 03:58:07;;;;;;;17.13;11.55;;;2.70;99.90;;;;;;5108719;28;20231;-83
2022/12/06 04:00:34;;;;;;;20.55;11.30;;;2.80;99.90;;;;;;5115774;28;20241;-83
2022/12/06 04:03:01;;;;;;;16.13;11.52;;;2.90;99.90;;;;;;5112446;28;20244;-83
2022/12/06 04:05:28;;;;;;;18.77;12.52;;;2.60;99.90;;;;;;5107319;28;20696;-84
2022/12/06 04:07:56;;;;;;;17.63;12.02;;;2.40;99.90;;;;;;5107280;28;20213;-84
2022/12/06 04:10:23;;;;;;;20.65;13.40;;;3.00;99.90;;;;;;5107375;28;20262;-84
2022/12/06 04:15:38;;;;;;;21.20;12.68;;;2.80;99.90;;;;;;5099714;28;20189;-84
2022/12/06 04:18:15;;;;;;;19.38;13.70;;;3.00;99.90;;;;;;5104982;28;20289;-85
2022/12/06 04:23:35;;;;;;;21.02;13.27;;;3.00;99.90;;;;;;5105808;28;20215;-84
2022/12/06 04:26:03;;;;;;;21.52;12.82;;;3.30;99.90;;;;;;5106612;28;20258;-83
2022/12/06 04:39:28;;;;;;;25.13;13.70;;;3.10;99.90;;;;;;5111748;28;20274;-84
2022/12/06 04:44:39;;;;;;;22.80;12.57;;;3.20;99.90;;;;;;5108863;28;20447;-84
2022/12/06 04:47:06;;;;;;;20.10;12.30;;;2.90;99.90;;;;;;5113051;28;20201;-83
2022/12/06 04:49:33;;;;;;;24.20;12.05;;;2.80;99.90;;;;;;5112504;28;20232;-84
2022/12/06 04:52:00;;;;;;;16.55;12.05;;;3.20;99.90;;;;;;5107507;28;20755;-84
2022/12/06 04:54:29;;;;;;;17.05;11.10;;;2.50;99.90;;;;;;5107384;28;20220;-83
2022/12/06 04:56:56;;;;;;;18.02;11.52;;;3.00;99.90;;;;;;5108265;28;20574;-83
2022/12/06 04:59:22;;;;;;;14.60;10.57;;;3.10;99.90;;;;;;5106475;28;20255;-84
2022/12/06 05:01:49;;;;;;;16.25;9.07;;;3.10;99.90;;;;;;5106116;28;20248;-83
2022/12/06 05:04:16;;;;;;;13.43;9.45;;;3.10;99.90;;;;;;5107108;28;20368;-83
2022/12/06 05:06:43;;;;;;;13.02;9.07;;;3.30;99.90;;;;;;5105481;28;20208;-84
2022/12/06 05:09:10;;;;;;;15.02;9.00;;;3.40;99.90;;;;;;5105044;28;20208;-84
2022/12/06 05:11:38;;;;;;;12.50;8.45;;;3.10;99.90;;;;;;5105294;28;20354;-85
2022/12/06 05:14:06;;;;;;;13.73;8.98;;;3.10;99.90;;;;;;5105507;28;20293;-84
2022/12/06 05:16:33;;;;;;;11.85;8.68;;;3.10;99.90;;;;;;5105003;28;20289;-84
2022/12/06 05:18:59;;;;;;;13.05;8.50;;;3.30;99.90;;;;;;5104346;28;20312;-83
2022/12/06 05:21:26;;;;;;;10.63;7.57;;;2.70;99.90;;;;;;5104757;28;20312;-83
2022/12/06 05:23:54;;;;;;;11.88;7.95;;;3.00;99.90;;;;;;5104401;28;20548;-83
2022/12/06 05:26:23;;;;;;;10.55;7.68;;;3.00;99.90;;;;;;5104719;28;20204;-84
2022/12/06 05:28:52;;;;;;;9.70;7.18;;;3.00;99.90;;;;;;5104689;28;20269;-83
2022/12/06 05:31:21;;;;;;;12.90;8.05;;;;;;;;;;5104628;28;20451;-84
2022/12/06 05:33:48;;;;;;;10.05;8.05;;;2.90;99.90;;;;;;5104194;28;20232;-84
2022/12/06 05:36:18;;;;;;;11.30;7.57;;;3.00;99.90;;;;;;5103216;28;20274;-84
2022/12/06 05:38:46;;;;;;;13.85;9.85;;;2.30;99.90;;;;;;5102634;28;20202;-84
2022/12/06 05:57:39;;;;;;;9.55;7.20;;;;;;;;;;4936662;29;20218;-82
2022/12/06 06:03:08;;;;;;;11.93;8.13;;;;;;;;;;4905676;29;20280;-82
2022/12/06 06:05:35;;;;;;;13.90;9.43;;;;;;;;;;5015562;28;20208;-82
2022/12/06 06:08:04;;;;;;;13.50;8.63;;;;;;;;;;5023633;28;20239;-84
2022/12/06 06:10:44;;;;;;;11.80;8.05;;;;;;;;;;5028158;28;20200;-83
2022/12/06 06:13:26;;;;;;;11.98;8.25;;;;;;;;;;5027966;28;20224;-84
2022/12/06 06:16:00;;;;;;;11.10;8.00;;;;;;;;;;5032508;28;20257;-83
2022/12/06 06:28:36;;;;;;;9.43;7.53;;;;;;;;;;5020866;28;20213;-83
2022/12/06 06:37:47;;;;;;;10.85;7.82;;;2.50;99.90;;;;;;4988318;28;20621;-84
2022/12/06 06:40:50;;;;;;;9.98;8.13;;;2.60;99.90;;;;;;5006877;28;20228;-84
2022/12/06 06:52:39;;;;;;;17.30;11.32;;;;;;;;;;5053207;28;20203;-85
2022/12/06 06:59:18;;;;;;;16.20;11.38;;;2.70;99.90;;;;;;4957949;28;20273;-85
2022/12/06 07:11:56;;;;;;;10.70;8.50;;;;;;;;;;4863461;29;20670;-85
2022/12/06 07:14:33;;;;;;;9.02;6.78;;;;;;;;;;5004930;28;20204;-87
2022/12/06 07:17:11;;;;;;;9.90;7.72;;;;;;;;;;5040415;28;20224;-85
2022/12/06 07:22:40;;;;;;;8.60;7.25;;;;;;;;;;5033056;28;20203;-84
2022/12/06 07:25:12;;;;;;;11.95;7.97;;;;;;;;;;5042028;28;20204;-86
2022/12/06 07:34:57;;;;;;;;;;;;;;;;;;;;;
2022/12/06 07:37:33;;;;;;;11.02;8.20;;;;;;;;;;4997860;28;20236;-85
2022/12/06 07:40:02;;;;;;;13.60;8.23;;;;;;;;;;5042357;28;20227;-85
2022/12/06 07:45:32;;;;;;;10.55;7.53;;;;;;;;;;5041036;28;20179;-85
2022/12/06 07:48:00;;;;;;;11.05;8.63;;;;;;;;;;5043914;28;20675;-86
2022/12/06 07:50:35;;;;;;;11.90;8.45;;;;;;;;;;5047262;28;20210;-84
2022/12/06 07:53:17;;;;;;;12.43;8.52;;;;;;;;;;5053968;28;20700;-85
2022/12/06 07:56:10;;;;;;;12.27;9.25;;;2.70;99.90;;;;;;5045489;28;20230;-85
2022/12/06 07:59:00;;;;;;;11.48;9.50;;;2.70;99.90;;;;;;5020717;28;20212;-85
2022/12/06 08:01:32;;;;;;;11.30;8.82;;;;;;;;;;5044597;28;20235;-84
2022/12/06 08:04:17;;;;;;;12.20;10.35;;;;;;;;;;5047882;28;20267;-85
2022/12/06 08:06:59;;;;;;;11.35;9.48;;;;;;;;;;5047687;28;20227;-85
2022/12/06 08:09:31;;;;;;;10.27;8.95;;;2.80;99.90;;;;;;5049499;28;20222;-85
2022/12/06 08:11:58;;;;;;;12.48;8.65;;;;;;;;;;5041924;28;20223;-85
2022/12/06 08:14:29;;;;;;;11.70;8.35;;;;;;;;;;5037993;28;20208;-84
2022/12/06 08:16:58;;;;;;;16.15;11.48;;;;;;;;;;5036248;28;20224;-84
2022/12/06 08:19:34;;;;;;;14.60;8.40;;;;;;;;;;5037236;28;20211;-84
2022/12/06 08:22:13;;;;;;;14.05;9.40;;;;;;;;;;5039416;28;20196;-84
2022/12/06 08:24:41;;;;;;;8.38;7.25;;;;;;;;;;5045766;28;20286;-84
2022/12/06 08:27:09;;;;;;;14.10;8.10;;;;;;;;;;5046720;28;20223;-85
2022/12/06 08:29:49;;;;;;;9.32;7.53;;;;;;;;;;5055292;28;20214;-85
2022/12/06 08:32:17;;;;;;;13.55;8.80;;;;;;;;;;5054467;28;20222;-85
2022/12/06 08:34:47;;;;;;;11.23;8.35;;;;;;;;;;5043536;28;20200;-85
2022/12/06 08:37:15;;;;;;;11.07;8.52;;;3.10;99.90;;;;;;5043729;28;20228;-85
2022/12/06 08:39:47;;;;;;;9.63;7.40;;;;;;;;;;5042395;28;20203;-85
2022/12/06 08:42:18;;;;;;;10.32;7.55;;;;;;;;;;5040526;28;20225;-84
2022/12/06 08:44:53;;;;;;;11.13;7.10;;;;;;;;;;5042411;28;20212;-84
2022/12/06 08:47:27;;;;;;;10.70;7.20;;;;;;;;;;5043691;28;20437;-85
2022/12/06 08:49:54;;;;;;;11.48;7.60;;;;;;;;;;5045851;28;20184;-85
2022/12/06 08:52:22;;;;;;;10.30;7.13;;;;;;;;;;5050172;28;20216;-85
2022/12/06 08:55:06;;;;;;;8.52;7.05;;;;;;;;;;5041978;28;20207;-85
2022/12/06 08:57:33;;;;;;;10.02;6.85;;;;;;;;;;5039372;28;20269;-84
2022/12/06 09:00:05;;;;;;;8.15;6.82;;;;;;;;;;5038716;28;20323;-83
2022/12/06 09:02:38;;;;;;;9.25;7.00;;;2.80;99.90;;;;;;5041839;28;20192;-84
2022/12/06 09:08:07;;;;;;;7.55;6.63;;;;;;;;;;5050557;28;20214;-84
2022/12/06 09:10:45;;;;;;;7.68;6.38;;;;;;;;;;5041026;28;20199;-85
2022/12/06 09:13:18;;;;;;;7.03;5.80;;;;;;;;;;5039577;28;20318;-85
2022/12/06 09:15:49;;;;;;;9.25;6.40;;;;;;;;;;5039547;28;20227;-85
2022/12/06 09:18:25;;;;;;;12.80;7.85;;;;;;;;;;5023397;28;20239;-86
2022/12/06 09:20:56;;;;;;;11.77;8.38;;;;;;;;;;5041123;28;20223;-85
2022/12/06 09:23:28;;;;;;;12.55;8.20;;;;;;;;;;5041194;28;20204;-85
2022/12/06 09:25:59;;;;;;;7.38;6.20;;;;;;;;;;5044176;28;20241;-85
2022/12/06 09:28:31;;;;;;;10.13;5.43;;;;;;;;;;5046149;28;20192;-85
2022/12/06 09:31:01;;;;;;;6.18;5.57;;;;;;;;;;5044748;28;20272;-86
2022/12/06 09:33:32;;;;;;;8.85;6.80;;;;;;;;;;5045263;28;20204;-85
2022/12/06 09:36:03;;;;;;;9.95;6.60;;;3.30;99.90;;;;;;5045177;28;20224;-85
2022/12/06 09:39:13;;;;;;;6.38;4.95;;;3.40;99.90;;;;;;5050766;28;20207;-84
2022/12/06 09:42:13;;;;;;;5.40;4.82;;;3.50;99.90;;;;;;4993794;28;20292;-84
2022/12/06 09:45:16;;;;;;;5.97;5.10;;;3.40;99.90;;;;;;4994959;28;20254;-85
2022/12/06 09:48:01;;;;;;;6.85;5.43;;;3.40;99.90;;;;;;5024731;28;20195;-86
2022/12/06 09:56:34;;;;;;;5.95;5.10;;;3.60;92.40;;;;;;5018802;28;20243;-84
2022/12/06 09:59:14;;;;;;;9.45;5.18;;;3.50;46.40;;;;;;5058318;28;20195;-85
2022/12/06 10:02:16;;;;;;;9.93;5.20;;;3.40;99.90;;;;;;5059611;28;20266;-85
2022/12/06 10:05:00;;;;;;;5.93;5.43;;;3.30;99.90;;;;;;5035707;28;20210;-86
2022/12/06 10:07:42;;;;;;;9.98;7.25;;;3.40;99.90;;;;;;5060027;28;20246;-85
2022/12/06 10:10:26;;;;;;;9.35;6.85;;;3.50;99.90;;;;;;5061068;28;20172;-86
2022/12/06 10:13:05;;;;;;;5.38;4.88;;;3.50;99.90;;;;;;5060079;28;20199;-86
2022/12/06 10:15:50;;;;;;;5.50;5.00;;;3.50;99.90;;;;;;5050532;28;20231;-86
2022/12/06 10:18:35;;;;;;;6.57;4.25;;;3.60;99.90;;;;;;5048965;28;20203;-86
2022/12/06 10:21:28;;;;;;;6.30;5.20;;;3.50;83.80;;;;;;5051900;28;20215;-85
2022/12/06 10:24:18;;;;;;;4.78;3.70;;;3.60;76.60;;;;;;5056325;28;20257;-86
2022/12/06 10:26:53;;;;;;;6.82;3.80;;;3.60;69.80;;;;;;5054536;28;20280;-86
2022/12/06 10:29:22;;;;;;;4.45;4.03;;;3.50;80.40;;;;;;5055588;28;20172;-85
2022/12/06 10:31:57;;;;;;;5.45;4.65;;;3.30;99.90;;;;;;5059528;28;20195;-85
2022/12/06 10:34:39;;;;;;;7.53;5.50;;;3.20;99.90;;;;;;5060058;28;20263;-85
2022/12/06 10:37:22;;;;;;;5.55;4.70;;;3.50;91.90;;;;;;5059709;28;20235;-86
2022/12/06 10:39:59;;;;;;;5.25;4.75;;;3.50;93.90;;;;;;5058871;28;20187;-86
2022/12/06 10:42:34;;;;;;;5.20;4.38;;;3.50;99.90;;;;;;5056746;28;20208;-86
2022/12/06 10:47:02;;;;;;;4.47;4.00;;;3.40;99.90;;;;;;5051173;28;20261;-86
2022/12/06 10:47:57;;;;;;;6.82;5.10;;;3.40;99.90;;;;;;5043193;28;20208;-86
2022/12/06 10:50:27;;;;;;;19.73;8.77;;;3.70;99.90;;;;;;5051558;28;20207;-85
2022/12/06 10:52:59;;;;;;;7.32;4.93;;;3.20;99.90;;;;;;5058388;28;20203;-85
2022/12/06 10:55:33;;;;;;;9.25;5.88;;;3.50;99.90;;;;;;5050762;28;20223;-85
2022/12/06 10:58:09;;;;;;;6.05;4.47;;;3.50;99.90;;;;;;5049354;28;20229;-85
2022/12/06 11:00:42;;;;;;;6.43;4.55;;;3.50;99.90;;;;;;5049212;28;20215;-84
2022/12/06 11:03:20;;;;;;;8.02;5.20;;;3.50;99.90;;;;;;5049562;28;20238;-85
2022/12/06 11:05:54;;;;;;;5.95;4.05;;;3.60;99.90;;;;;;5044218;28;20223;-85
2022/12/06 11:08:28;;;;;;;4.30;3.90;;;3.60;99.90;;;;;;5053607;28;20196;-86
2022/12/06 11:10:58;;;;;;;4.40;4.00;;;3.60;99.90;;;;;;5049589;28;20200;-85
2022/12/06 11:13:35;;;;;;;6.15;4.35;;;3.60;99.90;;;;;;5047346;28;20200;-85
2022/12/06 11:16:09;;;;;;;5.78;4.25;;;3.60;99.90;;;;;;5045369;28;20208;-86
2022/12/06 11:18:44;;;;;;;8.07;5.38;;;;;;;;;;5045419;28;20225;-85
2022/12/06 11:21:22;;;;;;;7.88;4.38;;;3.40;99.90;;;;;;5044918;28;20216;-86
2022/12/06 11:24:05;;;;;;;4.25;3.85;;;3.50;99.90;;;;;;5045601;28;20231;-85
2022/12/06 11:26:46;;;;;;;5.93;4.30;;;3.40;99.90;;;;;;5049978;28;20234;-86
2022/12/06 11:29:21;;;;;;;8.32;4.85;;;3.40;99.90;;;;;;5049208;28;20203;-87
2022/12/06 11:31:55;;;;;;;5.70;4.35;;;3.50;99.90;;;;;;5054036;28;20682;-84
2022/12/06 11:34:29;;;;;;;5.35;4.78;;;3.50;99.90;;;;;;5046330;28;20191;-87
2022/12/06 11:36:57;;;;;;;8.02;5.00;;;;;;;;;;5046757;28;20232;-86
2022/12/06 11:39:24;;;;;;;6.28;5.13;;;;;;;;;;5043494;28;20262;-85
2022/12/06 11:41:58;;;;;;;6.13;5.63;;;3.50;99.90;;;;;;5042677;28;20319;-86
2022/12/06 11:44:28;;;;;;;6.82;5.07;;;3.50;99.90;;;;;;5043752;28;20603;-85
2022/12/06 11:47:00;;;;;;;6.85;5.78;;;3.50;99.90;;;;;;5043717;28;20219;-86
2022/12/06 11:49:32;;;;;;;7.65;6.40;;;3.30;99.90;;;;;;5042782;28;20188;-85
2022/12/06 11:52:04;;;;;;;7.88;5.03;;;3.20;99.90;;;;;;5040006;28;20181;-86
2022/12/06 11:54:39;;;;;;;7.40;5.85;;;3.30;99.90;;;;;;5040670;28;20251;-85
2022/12/06 11:57:15;;;;;;;8.10;5.90;;;3.50;99.90;;;;;;5040807;28;20246;-84
2022/12/06 12:00:13;;;;;;;7.97;6.85;;;3.40;99.90;;;;;;5042500;28;20207;-85
2022/12/06 12:02:41;;;;;;;8.90;6.03;;;3.30;99.90;;;;;;5041649;28;20228;-84
2022/12/06 12:05:17;;;;;;;8.75;5.75;;;3.50;99.90;;;;;;5039630;28;20283;-84
2022/12/06 12:07:48;;;;;;;11.82;6.45;;;3.20;99.90;;;;;;5038418;28;20203;-84
2022/12/06 12:10:37;;;;;;;11.77;7.20;;;3.30;99.90;;;;;;5049215;28;20196;-84
2022/12/06 12:16:13;;;;;;;10.88;7.53;;;3.40;99.90;;;;;;5039702;28;20254;-84
2022/12/06 12:18:43;;;;;;;9.93;6.40;;;3.50;99.90;;;;;;5042453;28;20709;-84
2022/12/06 12:21:11;;;;;;;7.20;6.47;;;3.50;99.90;;;;;;5040571;28;20291;-84
2022/12/06 12:23:43;;;;;;;8.18;7.13;;;3.20;99.90;;;;;;5041463;28;20212;-85
2022/12/06 12:26:13;;;;;;;8.98;6.53;;;3.40;99.90;;;;;;5040764;28;20234;-86
2022/12/06 12:28:41;;;;;;;9.70;6.40;;;3.40;99.90;;;;;;5039613;28;20211;-85
2022/12/06 12:31:18;;;;;;;9.45;6.90;;;3.60;99.90;;;;;;5041206;28;20246;-86
2022/12/06 12:33:46;;;;;;;7.80;6.72;;;3.40;99.90;;;;;;5042641;28;20199;-85
2022/12/06 12:36:25;;;;;;;7.50;6.32;;;3.50;99.90;;;;;;5049471;28;20238;-84
2022/12/06 12:38:57;;;;;;;8.88;5.93;;;3.50;99.90;;;;;;5055105;28;20180;-85
2022/12/06 12:41:32;;;;;;;7.40;5.88;;;3.50;99.90;;;;;;5056722;28;20649;-84
2022/12/06 12:44:02;;;;;;;10.32;6.72;;;3.40;99.90;;;;;;5052402;28;20188;-84
2022/12/06 12:46:30;;;;;;;6.05;5.53;;;;;;;;;;5077357;22;20231;-83
2022/12/06 12:49:26;;;;;;;7.43;6.60;;;3.50;99.90;;;;;;5066780;28;20253;-84
2022/12/06 12:51:59;;;;;;;6.53;5.88;;;;;;;;;;5065913;28;20172;-82
2022/12/06 12:54:33;;;;;;;7.00;5.80;;;3.60;99.90;;;;;;5074835;28;20184;-82
2022/12/06 12:57:04;;;;;;;6.47;5.20;;;3.50;99.90;;;;;;5074049;28;20227;-82
2022/12/06 12:59:40;;;;;;;6.68;5.47;;;3.60;99.90;;;;;;5073696;28;20601;-83
2022/12/06 13:02:22;;;;;;;5.40;4.72;;;3.60;99.90;;;;;;5067848;28;20207;-83
2022/12/06 13:04:52;;;;;;;5.30;4.82;;;3.60;99.90;;;;;;5066430;28;20203;-81
2022/12/06 13:07:33;;;;;;;6.72;5.32;;;3.60;99.90;;;;;;5063896;28;20309;-82
2022/12/06 13:10:05;;;;;;;5.32;4.10;;;3.70;99.90;;;;;;5063995;28;20199;-84
2022/12/06 13:12:36;;;;;;;5.03;4.00;;;3.70;52.90;;;;;;5063722;28;20274;-84
2022/12/06 13:15:08;;;;;;;4.47;4.07;;;3.60;63.90;;;;;;5081205;28;20637;-83
2022/12/06 13:17:45;;;;;;;5.57;4.57;;;3.60;99.90;;;;;;5083115;28;20218;-82
2022/12/06 13:20:21;;;;;;;4.53;3.90;;;3.70;99.90;;;;;;5082919;28;20197;-82
2022/12/06 13:22:54;;;;;;;5.47;4.70;;;3.20;99.90;;;;;;5084464;28;20233;-84
2022/12/06 13:25:23;;;;;;;10.25;7.47;;;3.60;99.90;;;;;;5085313;28;20219;-83
2022/12/06 13:27:53;;;;;;;11.73;7.25;;;3.40;99.90;;;;;;5090253;28;20222;-83
2022/12/06 13:30:22;;;;;;;7.68;6.47;;;3.40;99.90;;;;;;5091179;28;20210;-83
2022/12/06 13:32:52;;;;;;;6.88;6.18;;;3.40;99.90;;;;;;5086651;28;20202;-84
2022/12/06 13:35:25;;;;;;;5.72;5.13;;;3.40;99.90;;;;;;5085229;28;20278;-84
2022/12/06 13:37:56;;;;;;;6.00;5.40;;;3.40;99.90;;;;;;5084949;28;20197;-84
2022/12/06 13:40:45;;;;;;;5.30;4.43;;;3.30;99.90;;;;;;5090061;28;20573;-84
2022/12/06 13:43:53;;;;;;;5.32;4.45;;;3.20;99.90;;;;;;5089069;28;20229;-83
2022/12/06 13:46:35;;;;;;;5.45;4.85;;;3.60;99.90;;;;;;5081966;28;20226;-83
2022/12/06 13:49:22;;;;;;;5.03;4.50;;;3.70;99.90;;;;;;5080536;28;20270;-82
2022/12/06 13:51:49;;;;;;;9.60;6.13;;;3.30;99.90;;;;;;5088187;28;20281;-83
2022/12/06 13:54:39;;;;;;;6.40;5.20;;;3.50;99.90;;;;;;5087001;28;20203;-83
2022/12/06 13:57:30;;;;;;;6.28;5.13;;;3.30;99.90;;;;;;5085571;28;20222;-82
2022/12/06 13:59:57;;;;;;;6.00;5.00;;;3.40;99.90;;;;;;5084041;28;20652;-83
2022/12/06 14:02:44;;;;;;;5.28;4.78;;;3.50;99.90;;;;;;5084064;28;20229;-83
2022/12/06 14:05:48;;;;;;;5.05;4.55;;;3.30;99.90;;;;;;5083554;28;20183;-83
2022/12/06 14:08:15;;;;;;;10.40;7.47;;;3.20;99.90;;;;;;5090163;28;20233;-80
2022/12/06 14:10:45;;;;;;;6.25;5.45;;;3.40;99.90;;;;;;5100021;28;20246;-82
2022/12/06 14:13:17;;;;;;;5.55;4.63;;;3.90;99.90;;;;;;5099365;28;20258;-83
2022/12/06 14:15:48;;;;;;;5.05;4.40;;;3.70;99.90;;;;;;5089484;28;20210;-85
2022/12/06 14:18:20;;;;;;;7.38;5.60;;;3.60;99.90;;;;;;5089749;28;20195;-83
2022/12/06 14:20:49;;;;;;;6.18;5.07;;;3.50;99.90;;;;;;5086940;28;20290;-83
2022/12/06 14:23:28;;;;;;;6.72;5.47;;;3.50;99.90;;;;;;5086322;28;20224;-84
2022/12/06 14:26:16;;;;;;;5.22;4.38;;;3.20;99.90;;;;;;5083529;28;20638;-82
2022/12/06 14:28:43;;;;;;;7.15;4.82;;;3.60;99.90;;;;;;5079639;28;20564;-82
2022/12/06 14:31:24;;;;;;;10.32;5.32;;;3.40;99.90;;;;;;5080076;28;20297;-83
2022/12/06 14:33:51;;;;;;;7.28;5.30;;;3.70;99.90;;;;;;5084034;28;20191;-82
2022/12/06 14:36:22;;;;;;;7.25;5.15;;;3.50;99.90;;;;;;5083225;28;20257;-83
2022/12/06 14:38:58;;;;;;;5.07;4.60;;;3.50;99.90;;;;;;5081757;28;20301;-83
2022/12/06 14:44:20;;;;;;;12.00;6.55;;;3.40;99.90;;;;;;5088015;28;20259;-83
2022/12/06 14:46:49;;;;;;;7.38;5.18;;;3.50;99.90;;;;;;5086707;28;20298;-85
2022/12/06 14:52:17;;;;;;;6.50;5.68;;;3.40;99.90;;;;;;5081040;28;20687;-83
2022/12/06 14:54:45;;;;;;;9.45;5.35;;;3.60;99.90;;;;;;5081726;28;20191;-83
2022/12/06 14:57:27;;;;;;;8.80;6.50;;;3.40;99.90;;;;;;5081655;28;20313;-82
2022/12/06 14:59:59;;;;;;;6.43;5.82;;;3.30;99.90;;;;;;5086816;28;20230;-83
2022/12/06 15:02:28;;;;;;;6.43;5.80;;;3.20;99.90;;;;;;5096126;28;20202;-81
2022/12/06 15:04:56;;;;;;;8.18;5.55;;;3.20;99.90;;;;;;5089499;28;20210;-84
2022/12/06 15:07:33;;;;;;;6.07;5.47;;;3.70;99.90;;;;;;5081982;28;20267;-82
2022/12/06 15:10:09;;;;;;;9.05;6.10;;;3.40;99.90;;;;;;5081452;28;20296;-83
2022/12/06 15:12:56;;;;;;;6.25;5.65;;;3.10;99.90;;;;;;5082124;28;20281;-83
2022/12/06 15:15:38;;;;;;;5.60;4.70;;;3.50;99.90;;;;;;5082860;28;20203;-84
2022/12/06 15:18:12;;;;;;;6.60;5.90;;;3.30;99.90;;;;;;5082996;28;20273;-82
2022/12/06 15:20:39;;;;;;;7.05;5.13;;;3.50;99.90;;;;;;5087446;28;20228;-83
2022/12/06 15:23:39;;;;;;;5.30;4.80;;;3.30;99.90;;;;;;5087228;28;20229;-82
2022/12/06 15:26:10;;;;;;;6.00;5.25;;;3.30;99.90;;;;;;5039909;28;20226;-83
2022/12/06 15:28:38;;;;;;;5.85;5.10;;;2.90;99.90;;;;;;5081689;28;20284;-84